createdAt,value
2023-04-04T00:02:01.890Z,58.10
2023-04-04T00:05:08.902Z,58.20
2023-04-04T00:08:11.390Z,58.00
2023-04-04T00:11:14.105Z,58.20
2023-04-04T00:14:16.526Z,58.10
2023-04-04T00:17:18.813Z,58.70
2023-04-04T00:20:21.203Z,58.10
2023-04-04T00:23:23.433Z,58.10
2023-04-04T00:26:26.893Z,58.20
2023-04-04T00:29:29.472Z,58.10
2023-04-04T00:32:32.633Z,58.10
2023-04-04T00:35:35.017Z,58.00
2023-04-04T00:38:37.830Z,57.90
2023-04-04T00:41:40.136Z,57.90
2023-04-04T00:44:42.312Z,58.00
2023-04-04T00:47:45.209Z,58.00
2023-04-04T00:50:47.520Z,58.00
2023-04-04T00:53:51.506Z,57.90
2023-04-04T00:56:55.726Z,58.00
2023-04-04T00:59:58.990Z,58.00
2023-04-04T01:03:01.499Z,58.00
2023-04-04T01:06:04.208Z,58.10
2023-04-04T01:09:06.573Z,58.10
2023-04-04T01:12:08.770Z,58.00
2023-04-04T01:15:11.653Z,58.10
2023-04-04T01:18:19.056Z,58.10
2023-04-04T01:21:23.200Z,58.00
2023-04-04T01:24:28.768Z,58.00
2023-04-04T01:27:35.310Z,58.00
2023-04-04T01:30:44.766Z,58.00
2023-04-04T01:34:07.005Z,58.40
2023-04-04T01:37:30.961Z,58.10
2023-04-04T01:40:38.622Z,58.10
2023-04-04T01:43:46.797Z,58.10
2023-04-04T01:46:55.195Z,58.00
2023-04-04T01:49:58.638Z,58.00
2023-04-04T01:53:01.055Z,58.00
2023-04-04T01:56:03.471Z,57.90
2023-04-04T01:59:07.812Z,57.90
2023-04-04T02:02:10.160Z,57.90
2023-04-04T02:05:12.781Z,57.80
2023-04-04T02:08:15.721Z,57.90
2023-04-04T02:11:26.087Z,57.90
2023-04-04T02:14:28.291Z,57.90
2023-04-04T02:17:30.988Z,57.80
2023-04-04T02:20:33.368Z,57.90
2023-04-04T02:23:35.578Z,57.90
2023-04-04T02:26:37.825Z,57.80
2023-04-04T02:29:41.385Z,57.90
2023-04-04T02:32:43.608Z,57.80
2023-04-04T02:35:49.731Z,57.70
2023-04-04T02:38:52.137Z,57.70
2023-04-04T02:41:56.594Z,57.70
2023-04-04T02:44:58.877Z,57.70
2023-04-04T02:48:01.888Z,57.70
2023-04-04T02:51:13.384Z,57.70
2023-04-04T02:54:16.269Z,57.70
2023-04-04T02:57:21.607Z,57.70
2023-04-04T03:00:23.934Z,58.00
2023-04-04T03:03:26.359Z,57.80
2023-04-04T03:06:33.197Z,57.50
2023-04-04T03:09:35.436Z,57.60
2023-04-04T03:12:37.737Z,57.70
2023-04-04T03:15:41.071Z,57.60
2023-04-04T03:18:44.941Z,57.70
2023-04-04T03:21:48.515Z,57.60
2023-04-04T03:24:51.427Z,57.70
2023-04-04T03:27:54.926Z,57.60
2023-04-04T03:31:07.310Z,57.70
2023-04-04T03:34:13.499Z,57.60
2023-04-04T03:37:15.778Z,57.60
2023-04-04T03:40:18.016Z,57.60
2023-04-04T03:43:20.152Z,57.70
2023-04-04T03:46:22.677Z,57.60
2023-04-04T03:49:25.381Z,57.70
2023-04-04T03:52:27.958Z,57.60
2023-04-04T03:55:30.120Z,57.70
2023-04-04T03:58:36.520Z,57.70
2023-04-04T04:01:38.924Z,57.70
2023-04-04T04:04:41.795Z,57.60
2023-04-04T04:07:45.662Z,57.70
2023-04-04T04:10:47.982Z,57.60
2023-04-04T04:13:50.202Z,57.60
2023-04-04T04:16:53.227Z,57.60
2023-04-04T04:19:57.605Z,57.60
2023-04-04T04:23:01.226Z,57.60
2023-04-04T04:26:05.436Z,57.60
2023-04-04T04:29:08.833Z,57.60
2023-04-04T04:32:18.579Z,57.60
2023-04-04T04:35:24.783Z,57.60
2023-04-04T04:38:29.225Z,57.50
2023-04-04T04:41:31.978Z,57.50
2023-04-04T04:44:35.929Z,57.50
2023-04-04T04:47:38.399Z,57.40
2023-04-04T04:50:47.362Z,58.00
2023-04-04T04:53:53.402Z,57.30
2023-04-04T04:56:56.255Z,57.10
2023-04-04T04:59:58.501Z,56.40
2023-04-04T05:03:02.638Z,56.20
2023-04-04T05:06:15.161Z,56.60
2023-04-04T05:09:17.450Z,56.90
2023-04-04T05:12:19.812Z,57.00
2023-04-04T05:15:29.483Z,57.10
2023-04-04T05:18:32.344Z,57.10
2023-04-04T05:21:35.035Z,57.30
2023-04-04T05:24:39.987Z,57.30
2023-04-04T05:27:42.913Z,57.30
2023-04-04T05:30:45.788Z,57.20
2023-04-04T05:33:52.633Z,57.20
2023-04-04T05:37:03.545Z,57.20
2023-04-04T05:40:08.445Z,57.20
2023-04-04T05:43:11.240Z,57.10
2023-04-04T05:46:24.911Z,57.10
2023-04-04T05:49:29.007Z,57.20
2023-04-04T05:52:34.184Z,57.10
2023-04-04T05:55:37.221Z,57.00
2023-04-04T05:58:39.840Z,56.90
2023-04-04T06:01:42.349Z,56.70
2023-04-04T06:04:48.643Z,56.80
2023-04-04T06:07:56.140Z,56.80
2023-04-04T06:10:58.393Z,56.50
2023-04-04T06:14:00.574Z,56.50
2023-04-04T06:17:03.937Z,56.50
2023-04-04T06:20:06.838Z,56.30
2023-04-04T06:23:10.413Z,56.20
2023-04-04T06:26:17.877Z,56.80
2023-04-04T06:29:21.737Z,56.20
2023-04-04T06:32:24.408Z,56.10
2023-04-04T06:35:26.672Z,55.90
2023-04-04T06:38:34.647Z,56.00
2023-04-04T06:41:41.091Z,55.80
2023-04-04T06:44:43.347Z,55.80
2023-04-04T06:47:46.033Z,56.10
2023-04-04T06:50:48.330Z,55.90
2023-04-04T06:53:52.733Z,55.70
2023-04-04T06:56:55.044Z,55.50
2023-04-04T06:59:57.438Z,55.40
2023-04-04T07:03:00.720Z,55.40
2023-04-04T07:06:04.744Z,54.90
2023-04-04T07:09:12.861Z,54.50
2023-04-04T07:12:21.304Z,54.40
2023-04-04T07:15:23.745Z,54.30
2023-04-04T07:18:25.962Z,54.10
2023-04-04T07:21:29.041Z,53.80
2023-04-04T07:24:31.284Z,53.80
2023-04-04T07:27:33.781Z,53.50
2023-04-04T07:30:35.971Z,53.40
2023-04-04T07:33:38.352Z,53.10
2023-04-04T07:36:40.765Z,53.00
2023-04-04T07:39:43.218Z,53.20
2023-04-04T07:42:46.402Z,52.80
2023-04-04T07:45:48.687Z,52.80
2023-04-04T07:48:50.902Z,52.60
2023-04-04T07:51:53.207Z,52.50
2023-04-04T07:54:55.479Z,52.50
2023-04-04T07:57:58.752Z,52.80
2023-04-04T08:01:01.931Z,52.50
2023-04-04T08:04:05.831Z,52.40
2023-04-04T08:07:08.112Z,52.50
2023-04-04T08:10:10.921Z,52.50
2023-04-04T08:13:13.425Z,52.80
2023-04-04T08:16:15.716Z,52.60
2023-04-04T08:19:18.041Z,52.80
2023-04-04T08:22:20.355Z,52.50
2023-04-04T08:25:23.155Z,52.70
2023-04-04T08:28:25.502Z,52.90
2023-04-04T08:31:28.451Z,52.90
2023-04-04T08:34:30.785Z,52.80
2023-04-04T08:37:33.322Z,52.70
2023-04-04T08:40:35.898Z,52.60
2023-04-04T08:43:41.407Z,52.70
2023-04-04T08:46:45.996Z,52.50
2023-04-04T08:49:49.786Z,52.40
2023-04-04T08:52:53.229Z,52.30
2023-04-04T08:55:58.206Z,52.20
2023-04-04T08:59:00.533Z,52.30
2023-04-04T09:02:34.761Z,52.10
2023-04-04T09:05:38.025Z,52.30
2023-04-04T09:08:41.725Z,52.20
2023-04-04T09:11:46.786Z,52.10
2023-04-04T09:14:52.272Z,52.30
2023-04-04T09:17:54.638Z,52.20
2023-04-04T09:20:56.863Z,52.50
2023-04-04T09:24:00.561Z,52.40
2023-04-04T09:27:03.573Z,52.70
2023-04-04T09:30:06.532Z,52.90
2023-04-04T09:33:11.555Z,53.10
2023-04-04T09:36:14.031Z,53.20
2023-04-04T09:39:20.929Z,53.40
2023-04-04T09:42:24.506Z,53.30
2023-04-04T09:45:32.342Z,53.30
2023-04-04T09:48:37.245Z,53.20
2023-04-04T09:51:41.543Z,53.10
2023-04-04T09:54:48.416Z,53.30
2023-04-04T09:57:50.973Z,53.10
2023-04-04T10:00:56.842Z,53.20
2023-04-04T10:03:59.483Z,52.90
2023-04-04T10:07:01.918Z,52.90
2023-04-04T10:10:09.237Z,52.90
2023-04-04T10:13:12.003Z,52.50
2023-04-04T10:16:15.600Z,52.70
2023-04-04T10:19:19.468Z,52.50
2023-04-04T10:22:22.513Z,52.20
2023-04-04T10:25:24.957Z,52.00
2023-04-04T10:28:28.386Z,52.10
2023-04-04T10:31:33.570Z,51.90
2023-04-04T10:34:49.984Z,51.90
2023-04-04T10:38:11.982Z,51.90
2023-04-04T10:44:58.378Z,51.60
2023-04-04T10:48:08.928Z,51.50
2023-04-04T10:51:15.008Z,52.00
2023-04-04T10:54:17.522Z,51.30
2023-04-04T10:57:20.199Z,51.40
2023-04-04T11:00:24.410Z,51.20
2023-04-04T11:03:26.704Z,51.60
2023-04-04T11:07:03.995Z,51.30
2023-04-04T11:10:15.500Z,51.50
2023-04-04T11:13:22.270Z,51.50
2023-04-04T11:16:25.083Z,51.20
2023-04-04T11:19:31.810Z,51.10
2023-04-04T11:22:36.580Z,51.10
2023-04-04T11:25:41.963Z,51.10
2023-04-04T11:28:46.331Z,51.30
2023-04-04T11:31:50.932Z,51.10
2023-04-04T11:34:53.161Z,51.20
2023-04-04T11:37:55.329Z,51.20
2023-04-04T11:53:45.001Z,51.10
2023-04-04T11:56:47.597Z,50.20
2023-04-04T11:59:51.103Z,50.10
2023-04-04T12:02:53.479Z,50.30
2023-04-04T12:05:57.295Z,50.30
2023-04-04T12:09:00.292Z,50.50
2023-04-04T12:12:03.630Z,50.40
2023-04-04T12:15:16.947Z,50.50
2023-04-04T12:18:23.511Z,50.60
2023-04-04T12:21:27.033Z,50.50
2023-04-04T12:24:29.298Z,50.80
2023-04-04T12:27:31.826Z,51.00
2023-04-04T12:30:34.896Z,50.90
2023-04-04T12:33:38.208Z,50.90
2023-04-04T12:36:41.544Z,50.90
2023-04-04T12:39:51.229Z,51.20
2023-04-04T12:42:53.944Z,51.40
2023-04-04T12:45:58.211Z,51.50
2023-04-04T12:49:01.168Z,51.30
2023-04-04T12:52:04.935Z,51.30
2023-04-04T12:55:09.999Z,51.60
2023-04-04T12:58:12.383Z,51.70
2023-04-04T13:01:16.008Z,51.50
2023-04-04T13:04:18.436Z,51.70
2023-04-04T13:07:25.462Z,51.60
2023-04-04T13:10:28.218Z,51.90
2023-04-04T13:13:41.496Z,51.80
2023-04-04T13:16:44.302Z,51.80
2023-04-04T13:19:46.698Z,51.70
2023-04-04T13:22:49.082Z,52.00
2023-04-04T13:25:51.618Z,51.90
2023-04-04T13:28:53.850Z,51.90
2023-04-04T13:31:56.722Z,51.90
2023-04-04T13:34:59.156Z,52.20
2023-04-04T13:38:01.663Z,52.00
2023-04-04T13:41:03.876Z,52.00
2023-04-04T13:44:06.189Z,51.90
2023-04-04T13:47:08.315Z,51.90
2023-04-04T13:50:10.757Z,52.00
2023-04-04T13:53:13.010Z,51.80
2023-04-04T13:56:18.758Z,52.10
2023-04-04T13:59:21.781Z,52.00
2023-04-04T14:02:24.768Z,51.90
2023-04-04T14:05:26.992Z,51.80
2023-04-04T14:08:31.055Z,52.00
2023-04-04T14:11:34.836Z,51.90
2023-04-04T14:14:37.933Z,52.10
2023-04-04T14:17:40.631Z,52.00
2023-04-04T14:20:42.914Z,52.00
2023-04-04T14:23:45.111Z,52.10
2023-04-04T14:26:47.320Z,52.20
2023-04-04T14:29:49.474Z,52.40
2023-04-04T14:32:52.321Z,52.40
2023-04-04T14:35:54.607Z,52.30
2023-04-04T14:38:57.014Z,52.30
2023-04-04T14:41:59.256Z,52.30
2023-04-04T14:45:05.293Z,52.50
2023-04-04T14:48:07.992Z,52.30
2023-04-04T14:51:10.279Z,52.20
2023-04-04T14:54:12.485Z,52.50
2023-04-04T14:57:15.026Z,52.30
2023-04-04T15:00:20.866Z,52.50
2023-04-04T15:03:23.053Z,52.50
2023-04-04T15:06:25.393Z,52.50
2023-04-04T15:09:28.655Z,52.40
2023-04-04T15:12:30.874Z,52.10
2023-04-04T15:15:33.436Z,51.60
2023-04-04T15:18:38.220Z,51.40
2023-04-04T15:21:40.794Z,51.30
2023-04-04T15:24:43.056Z,51.40
2023-04-04T15:27:45.311Z,51.50
2023-04-04T15:30:47.491Z,51.40
2023-04-04T15:33:49.706Z,51.30
2023-04-04T15:36:52.303Z,51.50
2023-04-04T15:39:54.872Z,51.50
2023-04-04T15:42:57.344Z,51.60
2023-04-04T15:45:59.646Z,51.60
2023-04-04T15:49:01.998Z,51.60
2023-04-04T15:52:04.417Z,51.70
2023-04-04T15:55:17.263Z,51.80
2023-04-04T15:58:19.643Z,51.80
2023-04-04T16:01:22.562Z,51.90
2023-04-04T16:04:24.826Z,52.00
2023-04-04T16:07:27.062Z,51.90
2023-04-04T16:10:29.354Z,52.00
2023-04-04T16:13:31.583Z,52.10
2023-04-04T16:16:33.754Z,52.10
2023-04-04T16:19:36.029Z,52.20
2023-04-04T16:22:38.213Z,52.30
2023-04-04T16:25:40.933Z,52.30
2023-04-04T16:28:44.393Z,52.30
2023-04-04T16:31:48.838Z,52.40
2023-04-04T16:34:51.099Z,52.50
2023-04-04T16:37:54.117Z,52.40
2023-04-04T16:40:59.627Z,52.50
2023-04-04T16:44:02.053Z,52.50
2023-04-04T16:47:04.385Z,52.50
2023-04-04T16:50:08.122Z,52.60
2023-04-04T16:53:11.044Z,52.60
2023-04-04T16:56:13.254Z,52.50
2023-04-04T16:59:17.231Z,52.50
2023-04-04T17:02:21.185Z,52.70
2023-04-04T17:05:25.676Z,52.80
2023-04-04T17:08:28.617Z,52.60
2023-04-04T17:11:31.234Z,52.80
2023-04-04T17:14:33.674Z,52.80
2023-04-04T17:17:36.101Z,52.70
2023-04-04T17:20:38.729Z,52.90
2023-04-04T17:23:41.123Z,52.90
2023-04-04T17:26:43.387Z,53.00
2023-04-04T17:29:45.893Z,53.10
2023-04-04T17:32:49.148Z,53.60
2023-04-04T17:35:51.673Z,53.10
2023-04-04T17:38:53.826Z,53.00
2023-04-04T17:41:56.531Z,53.10
2023-04-04T17:44:59.202Z,53.10
2023-04-04T17:48:01.385Z,53.00
2023-04-04T17:51:06.970Z,53.10
2023-04-04T17:54:10.428Z,53.00
2023-04-04T17:57:12.653Z,53.00
2023-04-04T18:00:16.066Z,52.90
2023-04-04T18:03:20.813Z,52.90
2023-04-04T18:06:24.103Z,52.90
2023-04-04T18:09:26.756Z,52.90
2023-04-04T18:12:30.407Z,52.90
2023-04-04T18:15:33.947Z,52.90
2023-04-04T18:18:36.233Z,52.80
2023-04-04T18:21:39.221Z,52.80
2023-04-04T18:24:41.401Z,53.00
2023-04-04T18:27:43.708Z,52.80
2023-04-04T18:30:45.987Z,52.90
2023-04-04T18:33:49.941Z,52.90
2023-04-04T18:36:52.211Z,52.80
2023-04-04T18:39:54.414Z,52.90
2023-04-04T18:42:56.935Z,52.80
2023-04-04T18:45:59.810Z,52.90
2023-04-04T18:49:01.987Z,52.80
2023-04-04T18:52:04.588Z,53.30
2023-04-04T18:55:07.645Z,52.80
2023-04-04T18:58:09.825Z,52.60
2023-04-04T19:01:12.729Z,52.60
2023-04-04T19:04:20.159Z,52.50
2023-04-04T19:07:26.717Z,52.50
2023-04-04T19:10:29.606Z,52.50
2023-04-04T19:13:31.945Z,52.40
2023-04-04T19:16:34.189Z,52.30
2023-04-04T19:19:36.434Z,52.80
2023-04-04T19:22:38.714Z,52.30
2023-04-04T19:25:41.283Z,52.20
2023-04-04T19:28:45.666Z,52.20
2023-04-04T19:31:48.009Z,52.10
2023-04-04T19:34:50.281Z,52.20
2023-04-04T19:37:52.445Z,52.20
2023-04-04T19:41:28.040Z,52.10
2023-04-04T19:44:31.455Z,52.10
2023-04-04T19:47:33.709Z,52.00
2023-04-04T19:50:38.232Z,52.00
2023-04-04T19:53:41.035Z,52.10
2023-04-04T19:56:46.585Z,51.90
2023-04-04T19:59:59.572Z,51.90
2023-04-04T20:03:07.591Z,52.00
2023-04-04T20:06:12.191Z,52.00
2023-04-04T20:09:40.262Z,51.80
2023-04-04T20:12:42.497Z,51.90
2023-04-04T20:15:47.849Z,51.90
2023-04-04T20:18:50.308Z,51.80
2023-04-04T20:21:52.557Z,51.90
2023-04-04T20:24:54.764Z,52.00
2023-04-04T20:27:58.161Z,51.80
2023-04-04T20:31:03.360Z,51.70
2023-04-04T20:34:07.588Z,51.90
2023-04-04T20:37:25.175Z,51.90
2023-04-04T20:40:39.963Z,51.80
2023-04-04T20:43:48.346Z,51.90
2023-04-04T20:46:50.907Z,51.90
2023-04-04T20:49:53.128Z,51.90
2023-04-04T20:53:06.436Z,52.00
2023-04-04T20:56:31.013Z,52.10
2023-04-04T20:59:36.754Z,52.00
2023-04-04T21:02:40.083Z,52.00
2023-04-04T21:05:42.473Z,52.10
2023-04-04T21:08:50.681Z,52.00
2023-04-04T21:11:53.200Z,52.00
2023-04-04T21:14:55.506Z,52.00
2023-04-04T21:18:06.621Z,51.90
2023-04-04T21:21:13.060Z,52.00
2023-04-04T21:24:16.749Z,51.90
2023-04-04T21:27:35.144Z,52.00
2023-04-04T21:30:44.349Z,52.00
2023-04-04T21:33:48.326Z,51.90
2023-04-04T21:36:52.270Z,51.90
2023-04-04T21:39:57.297Z,51.80
2023-04-04T21:42:59.488Z,52.30
2023-04-04T21:46:01.750Z,51.80
2023-04-04T21:49:05.582Z,51.80
2023-04-04T21:52:07.830Z,51.80
2023-04-04T21:55:10.244Z,51.70
2023-04-04T21:58:13.259Z,51.80
2023-04-04T22:01:15.516Z,51.70
2023-04-04T22:04:17.907Z,51.70
2023-04-04T22:07:20.281Z,51.70
2023-04-04T22:10:23.384Z,51.80
2023-04-04T22:13:33.994Z,51.70
2023-04-04T22:16:40.237Z,51.70
2023-04-04T22:19:43.011Z,51.60
2023-04-04T22:22:46.068Z,51.70
2023-04-04T22:25:48.286Z,51.60
2023-04-04T22:28:50.507Z,51.70
2023-04-04T22:31:52.882Z,51.70
2023-04-04T22:34:55.131Z,51.60
2023-04-04T22:38:01.066Z,51.50
2023-04-04T22:41:03.483Z,51.60
2023-04-04T22:44:05.735Z,51.60
2023-04-04T22:47:08.261Z,51.60
2023-04-04T22:50:10.466Z,51.60
2023-04-04T22:53:15.407Z,51.60
2023-04-04T22:56:17.602Z,51.60
2023-04-04T22:59:19.885Z,51.60
2023-04-04T23:02:22.114Z,51.60
2023-04-04T23:05:24.811Z,51.50
2023-04-04T23:08:27.044Z,51.50
2023-04-04T23:11:29.289Z,51.50
2023-04-04T23:14:31.583Z,51.40
2023-04-04T23:17:34.831Z,51.40
2023-04-04T23:20:37.447Z,51.50
2023-04-04T23:23:39.682Z,51.40
2023-04-04T23:26:42.008Z,51.40
2023-04-04T23:29:44.262Z,51.50
2023-04-04T23:32:46.533Z,51.40
2023-04-04T23:35:48.864Z,51.40
2023-04-04T23:38:51.027Z,51.40
2023-04-04T23:41:53.521Z,51.50
2023-04-04T23:44:55.775Z,51.40
2023-04-04T23:47:58.070Z,51.40
2023-04-04T23:51:02.007Z,51.50
2023-04-04T23:54:12.354Z,51.40
2023-04-04T23:57:14.509Z,51.40
